Terminal Aerodrome Forecast
Issued by NWS

Home | Current Version | Previous Version | Text Only | Print | Product List | Glossary On
Versions: 1 2 3 4 5 6 7 8 9 10 11 12 13 14 15 16 17 18 19 20 21 22
000
FTUS43 KLOT 131737
TAFDPA
TAF
KDPA 131737Z 1318/1418 21014G22KT P6SM SCT030 BKN080 OVC120
     FM131900 23014G21KT 6SM -SN SCT030 OVC080
      TEMPO 1319/1321 3SM -SN BKN015
     FM132100 31018G29KT P6SM -SN OVC018
     FM140200 35016G27KT 6SM -SHSN OVC020
      TEMPO 1403/1407 02012G18KT 2SM -SN BKN015
     FM140900 33011KT P6SM FEW025 SCT250=

USA.gov is the U.S. government's official web portal to all federal, state and local government web resources and services.